Flight Track Log - Related Links

Times and Time Zones

All times are in EDT time to prevent confusion due to time zone crossing. See the VRT51 flight status page for this flight to view local times or setup timezone preferences in your user account.

Time Position Orientation Groundspeed Altitude Reporting Facility
EDT Latitude Longitude Course Direction KTS MPH feet Rate Location/Type
Wed 10:01:09 AM 36.1000 -86.6833 158° South 166 191 1,300  Level Nashville TRACON
Wed 10:01:51 AM 36.0667 -86.6667 158° South 196 226 3,200 2,824 Climbing Nashville TRACON
Wed 10:02:51 AM 36.0667 -86.6000 90° East 250 288 6,100 3,288 Climbing Nashville TRACON
Wed 10:04:17 AM 36.0639 -86.4567 91° East 294 338 11,200 3,904 Climbing Memphis Center
Wed 10:05:17 AM 36.0667 -86.3486 88° East 300 345 15,600 3,850 Climbing Memphis Center
Wed 10:06:17 AM 36.0672 -86.2358 90° East 318 366 18,900 1,700 Climbing Memphis Center
Wed 10:07:17 AM 36.0708 -86.0994 88° East 368 423 19,000 50 Climbing Memphis Center
Wed 10:08:17 AM 36.0619 -85.9664 95° East 385 443 19,000  Level Memphis Center
Wed 10:09:17 AM 36.0536 -85.8486 95° East 385 443 19,000  Level Memphis Center
Wed 10:10:17 AM 36.0417 -85.6953 95° East 391 450 19,000  Level Memphis Center
Wed 10:11:28 AM 36.0306 -85.5306 95° East 404 465 19,000  Level Atlanta Center
Wed 10:12:28 AM 36.0217 -85.3944 95° East 404 465 19,000 -300 Level Atlanta Center
Wed 10:13:28 AM 36.0125 -85.2581 95° East 404 465 18,400 -1,200 Descending Atlanta Center
Wed 10:14:28 AM 36.0014 -85.1244 96° East 404 465 16,600 -1,900 Descending Atlanta Center
Wed 10:15:28 AM 35.9858 -84.9908 98° East 404 465 14,600 -1,850 Descending Atlanta Center
Wed 10:16:28 AM 35.9658 -84.8750 102° East 393 452 12,900 -1,750 Descending Atlanta Center
Wed 10:17:28 AM 35.9456 -84.7569 102° East 371 427 11,100 -950 Descending Atlanta Center
Wed 10:18:28 AM 35.9253 -84.6414 102° East 352 405 11,000 -100 Descending Atlanta Center
Wed 10:19:28 AM 35.9050 -84.5283 102° East 340 391 10,900 -950 Descending Atlanta Center
Wed 10:20:28 AM 35.8803 -84.4361 108° East 316 364 9,100 -2,100 Descending Atlanta Center
Wed 10:21:28 AM 35.8200 -84.3667 137° Southeast 292 336 6,700 -2,350 Descending Atlanta Center
Wed 10:22:28 AM 35.7661 -84.2997 135° Southeast 286 329 4,400 -1,650 Descending Atlanta Center
Wed 10:23:28 AM 35.7203 -84.2486 138° Southeast 256 295 3,400 -700 Descending Atlanta Center
Wed 10:24:28 AM 35.6828 -84.1997 133° Southeast 219 252 3,000 -200 Descending Atlanta Center
Wed 10:25:28 AM 35.6869 -84.1461 85° East 177 204 3,000  Level Atlanta Center
Wed 10:27:00 AM 35.7670 -84.0258 46° Northeast  Level FlightAware Approximate
Wed 10:34:00 AM 35.8000 -83.9833 46° Northeast  Level FlightAware Approximate
Wed 10:35:00 AM 35.8110 -83.9940 46° Northeast  Level Estimated
Wed 10:36:00 AM 35.8110 -83.9940 46° Northeast  Level Estimated

Login

Don't have an account? Register now (free) for customized features, flight alerts, and more!